createdAt,value
2016-05-25T00:00:50.094Z,16.49
2016-05-25T00:01:50.019Z,16.52
2016-05-25T00:02:50.130Z,16.52
2016-05-25T00:03:50.164Z,16.52
2016-05-25T00:04:50.183Z,16.52
2016-05-25T00:05:50.202Z,16.52
2016-05-25T00:06:50.236Z,16.46
2016-05-25T00:07:50.254Z,16.46
2016-05-25T00:08:50.288Z,16.48
2016-05-25T00:09:50.150Z,16.46
2016-05-25T00:10:50.340Z,16.41
2016-05-25T00:11:50.186Z,16.46
2016-05-25T00:12:50.376Z,16.48
2016-05-25T00:13:50.410Z,16.52
2016-05-25T00:14:50.413Z,16.52
2016-05-25T00:15:50.446Z,16.45
2016-05-25T00:16:50.482Z,16.46
2016-05-25T00:17:50.484Z,16.5
2016-05-25T00:18:50.518Z,16.46
2016-05-25T00:19:50.536Z,16.48
2016-05-25T00:20:50.414Z,16.52
2016-05-25T00:21:50.432Z,16.49
2016-05-25T00:22:50.606Z,16.42
2016-05-25T00:23:50.640Z,16.45
2016-05-25T00:24:50.503Z,16.46
2016-05-25T00:25:50.678Z,16.46
2016-05-25T00:26:50.711Z,16.5
2016-05-25T00:27:50.729Z,16.52
2016-05-25T00:28:50.607Z,16.5
2016-05-25T00:29:50.782Z,16.52
2016-05-25T00:30:50.800Z,16.52
2016-05-25T00:31:50.678Z,16.52
2016-05-25T00:32:50.852Z,16.45
2016-05-25T00:33:50.870Z,16.45
2016-05-25T00:34:50.889Z,16.45
2016-05-25T00:35:50.922Z,16.46
2016-05-25T00:36:50.957Z,16.52
2016-05-25T00:37:50.974Z,16.53
2016-05-25T00:38:50.994Z,16.52
2016-05-25T00:39:51.012Z,16.45
2016-05-25T00:40:50.889Z,16.45
2016-05-25T00:41:51.064Z,16.45
2016-05-25T00:42:50.926Z,16.49
2016-05-25T00:43:51.116Z,16.45
2016-05-25T00:44:51.134Z,16.52
2016-05-25T00:45:51.184Z,16.52
2016-05-25T00:46:51.046Z,16.43
2016-05-25T00:47:51.221Z,16.42
2016-05-25T00:48:51.240Z,16.42
2016-05-25T00:49:51.257Z,16.43
2016-05-25T00:50:51.276Z,16.42
2016-05-25T00:51:51.309Z,16.46
2016-05-25T00:52:51.328Z,16.45
2016-05-25T00:53:51.346Z,16.43
2016-05-25T00:54:51.364Z,16.57
2016-05-25T00:55:51.399Z,16.48
2016-05-25T00:56:51.261Z,16.39
2016-05-25T00:57:51.434Z,16.49
2016-05-25T00:58:51.469Z,16.5
2016-05-25T00:59:51.503Z,16.5
2016-05-25T01:00:51.522Z,16.53
2016-05-25T01:01:51.555Z,16.43
2016-05-25T01:02:51.417Z,16.56
2016-05-25T01:03:51.608Z,16.46
2016-05-25T01:04:51.610Z,16.46
2016-05-25T01:05:51.644Z,16.38
2016-05-25T01:06:51.662Z,16.41
2016-05-25T01:07:51.680Z,16.52
2016-05-25T01:08:51.714Z,16.43
2016-05-25T01:09:51.577Z,16.45
2016-05-25T01:10:51.752Z,16.38
2016-05-25T01:11:51.613Z,16.45
2016-05-25T01:12:51.804Z,16.52
2016-05-25T01:13:51.821Z,16.41
2016-05-25T01:14:51.855Z,16.5
2016-05-25T01:15:51.874Z,16.42
2016-05-25T01:16:52.407Z,16.45
2016-05-25T01:17:51.926Z,16.52
2016-05-25T01:18:51.945Z,16.43
2016-05-25T01:19:51.963Z,16.38
2016-05-25T01:20:51.996Z,16.38
2016-05-25T01:21:52.015Z,16.39
2016-05-25T01:22:52.034Z,16.42
2016-05-25T01:23:52.067Z,16.39
2016-05-25T01:24:52.382Z,16.41
2016-05-25T01:25:52.135Z,16.39
2016-05-25T01:26:52.137Z,16.41
2016-05-25T01:27:52.173Z,16.45
2016-05-25T01:28:52.034Z,16.39
2016-05-25T01:29:52.084Z,16.39
2016-05-25T01:30:52.242Z,16.39
2016-05-25T01:31:52.433Z,16.45
2016-05-25T01:32:52.279Z,16.35
2016-05-25T01:33:52.297Z,16.49
2016-05-25T01:34:52.331Z,16.43
2016-05-25T01:35:52.350Z,16.34
2016-05-25T01:36:52.227Z,16.35
2016-05-25T01:37:52.261Z,16.35
2016-05-25T01:38:52.263Z,16.35
2016-05-25T01:39:52.454Z,16.41
2016-05-25T01:40:52.161Z,16.34
2016-05-25T01:41:52.491Z,16.38
2016-05-25T01:42:52.510Z,16.28
2016-05-25T01:43:52.543Z,16.28
2016-05-25T01:44:52.561Z,16.35
2016-05-25T01:45:52.580Z,16.34
2016-05-25T01:46:52.660Z,16.3
2016-05-25T01:47:52.632Z,16.31
2016-05-25T01:48:52.510Z,16.33
2016-05-25T01:49:52.372Z,16.28
2016-05-25T01:50:52.702Z,16.24
2016-05-25T01:51:52.579Z,16.3
2016-05-25T01:52:52.755Z,16.31
2016-05-25T01:53:52.773Z,16.28
2016-05-25T01:54:52.807Z,16.27
2016-05-25T01:55:52.825Z,16.24
2016-05-25T01:56:52.703Z,16.28
2016-05-25T01:57:52.878Z,16.24
2016-05-25T01:58:52.895Z,16.27
2016-05-25T01:59:52.914Z,16.27
2016-05-25T02:00:52.948Z,16.2
2016-05-25T02:01:53.357Z,16.3
2016-05-25T02:02:52.985Z,16.14
2016-05-25T02:03:53.019Z,16.14
2016-05-25T02:04:53.037Z,16.24
2016-05-25T02:05:53.071Z,16.14
2016-05-25T02:06:53.089Z,16.2
2016-05-25T02:07:53.108Z,16.11
2016-05-25T02:08:52.969Z,16.14
2016-05-25T02:09:53.160Z,16.09
2016-05-25T02:10:53.178Z,16.23
2016-05-25T02:11:53.213Z,16.23
2016-05-25T02:12:53.231Z,16.12
2016-05-25T02:13:53.249Z,16.2
2016-05-25T02:14:53.283Z,16.15
2016-05-25T02:15:53.301Z,16.17
2016-05-25T02:16:53.179Z,16.09
2016-05-25T02:17:53.196Z,16.17
2016-05-25T02:18:53.371Z,16.15
2016-05-25T02:19:53.234Z,16.17
2016-05-25T02:20:53.424Z,16.2
2016-05-25T02:21:53.442Z,16.11
2016-05-25T02:22:53.460Z,16.01
2016-05-25T02:23:53.479Z,16.14
2016-05-25T02:24:53.357Z,16.17
2016-05-25T02:25:53.390Z,16.12
2016-05-25T02:26:53.581Z,16.08
2016-05-25T02:27:53.583Z,15.97
2016-05-25T02:28:53.633Z,16.11
2016-05-25T02:29:53.635Z,16.09
2016-05-25T02:30:53.653Z,16.02
2016-05-25T02:31:53.719Z,16.09
2016-05-25T02:32:53.706Z,16.01
2016-05-25T02:33:53.725Z,16
2016-05-25T02:34:53.603Z,16.01
2016-05-25T02:35:53.777Z,15.94
2016-05-25T02:36:53.655Z,16.02
2016-05-25T02:37:53.672Z,16.04
2016-05-25T02:38:53.863Z,16
2016-05-25T02:39:53.865Z,16.05
2016-05-25T02:40:53.900Z,16
2016-05-25T02:41:53.761Z,16.02
2016-05-25T02:42:53.936Z,16.04
2016-05-25T02:43:53.955Z,15.96
2016-05-25T02:44:53.988Z,16.05
2016-05-25T02:45:54.007Z,16.01
2016-05-25T02:46:54.057Z,16.04
2016-05-25T02:47:53.902Z,16.09
2016-05-25T02:48:53.921Z,16.02
2016-05-25T02:49:54.110Z,16.09
2016-05-25T02:50:54.145Z,15.97
2016-05-25T02:51:54.008Z,16.01
2016-05-25T02:52:54.025Z,16.05
2016-05-25T02:53:54.060Z,16.02
2016-05-25T02:54:54.218Z,16.01
2016-05-25T02:55:54.252Z,16.07
2016-05-25T02:56:54.115Z,15.96
2016-05-25T02:57:54.164Z,16.09
2016-05-25T02:58:54.323Z,16.01
2016-05-25T02:59:54.341Z,15.93
2016-05-25T03:00:54.375Z,16.08
2016-05-25T03:01:54.253Z,16.01
2016-05-25T03:02:54.428Z,16.02
2016-05-25T03:03:54.445Z,16.01
2016-05-25T03:04:54.464Z,16.07
2016-05-25T03:05:54.513Z,16.08
2016-05-25T03:06:54.501Z,16.01
2016-05-25T03:07:54.534Z,15.97
2016-05-25T03:08:54.397Z,16.04
2016-05-25T03:09:54.571Z,16.08
2016-05-25T03:10:54.621Z,16.02
2016-05-25T03:11:54.623Z,16.02
2016-05-25T03:12:54.658Z,16.02
2016-05-25T03:13:54.675Z,16.01
2016-05-25T03:14:54.694Z,16
2016-05-25T03:15:54.727Z,15.94
2016-05-25T03:16:54.855Z,16.05
2016-05-25T03:17:54.765Z,15.94
2016-05-25T03:18:54.643Z,16.02
2016-05-25T03:19:54.816Z,16.01
2016-05-25T03:20:54.835Z,15.92
2016-05-25T03:21:54.869Z,15.96
2016-05-25T03:22:54.904Z,15.97
2016-05-25T03:23:54.921Z,15.94
2016-05-25T03:24:54.940Z,15.94
2016-05-25T03:25:54.802Z,15.94
2016-05-25T03:26:54.836Z,15.89
2016-05-25T03:27:55.010Z,15.96
2016-05-25T03:28:55.045Z,15.86
2016-05-25T03:29:54.890Z,15.86
2016-05-25T03:30:55.081Z,15.87
2016-05-25T03:31:55.568Z,15.87
2016-05-25T03:32:55.133Z,15.9
2016-05-25T03:33:55.136Z,15.9
2016-05-25T03:34:55.186Z,15.83
2016-05-25T03:35:55.203Z,15.89
2016-05-25T03:36:55.222Z,15.87
2016-05-25T03:37:55.084Z,15.86
2016-05-25T03:38:55.117Z,15.9
2016-05-25T03:39:55.292Z,15.86
2016-05-25T03:40:55.311Z,15.84
2016-05-25T03:41:55.329Z,15.75
2016-05-25T03:42:55.363Z,15.87
2016-05-25T03:43:55.381Z,15.87
2016-05-25T03:44:55.243Z,15.76
2016-05-25T03:45:55.433Z,15.84
2016-05-25T03:46:55.608Z,15.76
2016-05-25T03:47:55.471Z,15.87
2016-05-25T03:48:55.505Z,15.89
2016-05-25T03:49:55.522Z,15.75
2016-05-25T03:50:55.557Z,15.87
2016-05-25T03:51:55.574Z,15.76
2016-05-25T03:52:55.593Z,15.83
2016-05-25T03:53:55.612Z,15.86
2016-05-25T03:54:55.645Z,15.75
2016-05-25T03:55:55.664Z,15.8
2016-05-25T03:56:55.698Z,15.83
2016-05-25T03:57:55.716Z,15.84
2016-05-25T03:58:55.735Z,15.84
2016-05-25T03:59:55.769Z,15.84
2016-05-25T04:00:55.771Z,15.83
2016-05-25T04:01:56.008Z,15.83
2016-05-25T04:02:55.824Z,15.84
2016-05-25T04:03:55.857Z,15.89
2016-05-25T04:04:55.876Z,15.83
2016-05-25T04:05:55.754Z,15.82
2016-05-25T04:06:55.928Z,15.92
2016-05-25T04:07:55.961Z,15.86
2016-05-25T04:08:55.824Z,15.87
2016-05-25T04:09:55.842Z,15.92
2016-05-25T04:10:56.033Z,15.86
2016-05-25T04:11:56.035Z,15.9
2016-05-25T04:12:56.069Z,15.87
2016-05-25T04:13:56.087Z,15.9
2016-05-25T04:14:55.965Z,15.93
2016-05-25T04:15:56.139Z,15.89
2016-05-25T04:16:56.174Z,15.93
2016-05-25T04:17:56.191Z,15.96
2016-05-25T04:18:56.210Z,15.96
2016-05-25T04:19:56.267Z,15.94
2016-05-25T04:20:56.325Z,15.92
2016-05-25T04:21:56.351Z,15.96
2016-05-25T04:22:56.394Z,15.9
2016-05-25T04:23:56.436Z,15.92
2016-05-25T04:24:56.509Z,16.02
2016-05-25T04:25:56.505Z,16
2016-05-25T04:26:56.548Z,15.97
2016-05-25T04:27:56.574Z,16.02
2016-05-25T04:28:56.617Z,15.92
2016-05-25T04:29:56.638Z,16
2016-05-25T04:30:56.660Z,16.02
2016-05-25T04:31:57.853Z,15.97
2016-05-25T04:32:56.561Z,16.01
2016-05-25T04:33:56.739Z,16.05
2016-05-25T04:34:56.759Z,16.02
2016-05-25T04:35:56.793Z,16.04
2016-05-25T04:36:56.673Z,15.97
2016-05-25T04:37:56.676Z,16.05
2016-05-25T04:38:56.869Z,16.02
2016-05-25T04:39:56.887Z,16
2016-05-25T04:40:56.921Z,16.02
2016-05-25T04:41:56.925Z,16.04
2016-05-25T04:42:56.974Z,16.04
2016-05-25T04:43:56.976Z,16
2016-05-25T04:44:56.996Z,15.96
2016-05-25T04:45:57.029Z,16.08
2016-05-25T04:46:57.173Z,16.05
2016-05-25T04:47:56.926Z,16.02
2016-05-25T04:48:57.100Z,16.01
2016-05-25T04:49:57.134Z,15.97
2016-05-25T04:50:57.137Z,16.04
2016-05-25T04:51:57.170Z,16.09
2016-05-25T04:52:57.048Z,16.14
2016-05-25T04:53:57.207Z,16.05
2016-05-25T04:54:57.242Z,16.2
2016-05-25T04:55:57.259Z,16.12
2016-05-25T04:56:57.136Z,16.01
2016-05-25T04:57:57.311Z,16.01
2016-05-25T04:58:57.330Z,16.15
2016-05-25T04:59:57.349Z,16.12
2016-05-25T05:00:57.383Z,16.14
2016-05-25T05:01:57.416Z,16.11
2016-05-25T05:02:57.419Z,16.12
2016-05-25T05:03:57.297Z,16.17
2016-05-25T05:04:57.471Z,16.14
2016-05-25T05:05:57.490Z,16.09
2016-05-25T05:06:57.523Z,16.07
2016-05-25T05:07:57.557Z,16.11
2016-05-25T05:08:57.576Z,16.28
2016-05-25T05:09:57.593Z,16.24
2016-05-25T05:10:57.628Z,16.27
2016-05-25T05:11:57.631Z,16.23
2016-05-25T05:12:57.665Z,16.27
2016-05-25T05:13:57.682Z,16.3
2016-05-25T05:14:57.717Z,16.25
2016-05-25T05:15:57.735Z,16.3
2016-05-25T05:16:57.879Z,16.33
2016-05-25T05:17:57.631Z,16.3
2016-05-25T05:18:57.806Z,16.28
2016-05-25T05:19:57.839Z,16.34
2016-05-25T05:20:57.843Z,16.38
2016-05-25T05:21:57.892Z,16.42
2016-05-25T05:22:57.895Z,16.43
2016-05-25T05:23:57.928Z,16.43
2016-05-25T05:24:57.947Z,16.45
2016-05-25T05:25:57.965Z,16.53
2016-05-25T05:26:58.000Z,16.58
2016-05-25T05:27:58.017Z,16.66
2016-05-25T05:28:58.052Z,16.66
2016-05-25T05:29:58.069Z,16.73
2016-05-25T05:30:58.088Z,16.66
2016-05-25T05:31:58.122Z,16.76
2016-05-25T05:32:57.984Z,16.89
2016-05-25T05:33:58.158Z,16.94
2016-05-25T05:34:58.193Z,16.85
2016-05-25T05:35:58.227Z,17.04
2016-05-25T05:36:58.245Z,17.07
2016-05-25T05:37:58.263Z,17.08
2016-05-25T05:38:58.297Z,17.25
2016-05-25T05:39:58.331Z,17.19
2016-05-25T05:40:58.334Z,17.28
2016-05-25T05:41:58.352Z,17.37
2016-05-25T05:42:58.385Z,17.37
2016-05-25T05:43:58.404Z,17.37
2016-05-25T05:44:58.437Z,17.52
2016-05-25T05:46:01.004Z,17.59
2016-05-25T05:46:58.334Z,17.66
2016-05-25T05:47:58.509Z,17.71
2016-05-25T05:48:58.527Z,17.72
2016-05-25T05:49:58.561Z,17.78
2016-05-25T05:50:59.204Z,17.82
2016-05-25T05:51:58.614Z,17.97
2016-05-25T05:52:58.631Z,17.92
2016-05-25T05:54:01.665Z,18.08
2016-05-25T05:54:58.683Z,18.17
2016-05-25T05:55:59.671Z,18.21
2016-05-25T05:56:58.736Z,18.21
2016-05-25T05:57:58.598Z,18.33
2016-05-25T05:58:58.789Z,18.42
2016-05-25T05:59:58.822Z,18.54
2016-05-25T06:00:58.841Z,18.44
2016-05-25T06:01:58.874Z,18.6
2016-05-25T06:02:58.893Z,18.6
2016-05-25T06:03:58.771Z,18.62
2016-05-25T06:04:58.929Z,18.7
2016-05-25T06:05:58.963Z,18.73
2016-05-25T06:06:58.825Z,18.8
2016-05-25T06:07:59.015Z,18.81
2016-05-25T06:08:59.081Z,18.84
2016-05-25T06:09:58.896Z,18.78
2016-05-25T06:10:59.102Z,18.92
2016-05-25T06:11:59.121Z,18.95
2016-05-25T06:12:59.154Z,18.91
2016-05-25T06:13:59.157Z,18.94
2016-05-25T06:14:59.206Z,19
2016-05-25T06:15:59.224Z,19.13
2016-05-25T06:17:00.102Z,19.11
2016-05-25T06:18:00.308Z,18.98
2016-05-25T06:18:59.296Z,19.08
2016-05-25T06:19:59.314Z,19.11
2016-05-25T06:20:59.347Z,19.02
2016-05-25T06:21:59.382Z,19.07
2016-05-25T06:22:59.400Z,19.06
2016-05-25T06:23:59.450Z,19.06
2016-05-25T06:24:59.437Z,19.13
2016-05-25T06:25:59.486Z,19.08
2016-05-25T06:26:59.504Z,19.07
2016-05-25T06:28:00.897Z,19.08
2016-05-25T06:28:59.556Z,19.11
2016-05-25T06:29:59.590Z,19.1
2016-05-25T06:30:59.608Z,19.1
2016-05-25T06:32:00.267Z,19.07
2016-05-25T06:32:59.505Z,19.21
2016-05-25T06:33:59.680Z,19.18
2016-05-25T06:34:59.698Z,19.1
2016-05-25T06:35:59.732Z,19.19
2016-05-25T06:36:59.594Z,19.22
2016-05-25T06:37:59.628Z,19.16
2016-05-25T06:38:59.661Z,19.14
2016-05-25T06:39:59.836Z,19.14
2016-05-25T06:40:59.854Z,19.16
2016-05-25T06:41:59.889Z,19.16
2016-05-25T06:43:00.626Z,19.16
2016-05-25T06:43:59.785Z,19.11
2016-05-25T06:44:59.959Z,19.21
2016-05-25T06:45:59.977Z,19.11
2016-05-25T06:47:00.026Z,19.22
2016-05-25T06:48:00.045Z,19.19
2016-05-25T06:49:00.063Z,19.18
2016-05-25T06:50:00.081Z,19.14
2016-05-25T06:51:00.116Z,19.14
2016-05-25T06:52:00.165Z,19.19
2016-05-25T06:53:00.183Z,19.19
2016-05-25T06:54:00.202Z,19.22
2016-05-25T06:55:00.220Z,19.19
2016-05-25T06:56:00.270Z,19.19
2016-05-25T06:57:00.273Z,19.16
2016-05-25T06:58:00.306Z,19.18
2016-05-25T06:59:00.169Z,19.22
2016-05-25T07:00:00.374Z,19.14
2016-05-25T07:01:00.392Z,19.18
2016-05-25T07:02:00.427Z,19.14
2016-05-25T07:03:01.789Z,19.16
2016-05-25T07:04:00.447Z,19.18
2016-05-25T07:05:00.497Z,19.22
2016-05-25T07:06:00.500Z,19.21
2016-05-25T07:07:00.377Z,19.14
2016-05-25T07:08:00.552Z,19.14
2016-05-25T07:09:00.586Z,19.14
2016-05-25T07:10:00.604Z,19.19
2016-05-25T07:11:00.638Z,19.13
2016-05-25T07:12:00.657Z,19.14
2016-05-25T07:13:00.690Z,19.19
2016-05-25T07:14:00.724Z,19.11
2016-05-25T07:15:00.587Z,19.13
2016-05-25T07:16:00.760Z,19.19
2016-05-25T07:17:01.138Z,19.14
2016-05-25T07:18:02.954Z,19.21
2016-05-25T07:19:00.832Z,19.23
2016-05-25T07:20:00.709Z,19.16
2016-05-25T07:21:00.884Z,19.22
2016-05-25T07:22:00.918Z,19.19
2016-05-25T07:23:01.484Z,19.1
2016-05-25T07:24:00.970Z,19.21
2016-05-25T07:25:00.832Z,19.22
2016-05-25T07:26:01.022Z,19.23
2016-05-25T07:27:01.072Z,19.32
2016-05-25T07:28:01.075Z,19.19
2016-05-25T07:29:01.092Z,19.22
2016-05-25T07:30:01.127Z,19.25
2016-05-25T07:31:01.145Z,19.18
2016-05-25T07:32:01.492Z,19.29
2016-05-25T07:33:01.197Z,19.33
2016-05-25T07:34:00.919Z,19.25
2016-05-25T07:35:01.250Z,19.22
2016-05-25T07:36:01.127Z,19.28
2016-05-25T07:37:01.303Z,19.25
2016-05-25T07:38:01.180Z,19.25
2016-05-25T07:39:01.198Z,19.26
2016-05-25T07:40:01.404Z,19.29
2016-05-25T07:41:01.407Z,19.36
2016-05-25T07:42:01.284Z,19.37
2016-05-25T07:43:01.458Z,19.41
2016-05-25T07:44:01.336Z,19.4
2016-05-25T07:45:01.511Z,19.41
2016-05-25T07:46:01.529Z,19.43
2016-05-25T07:47:01.563Z,19.4
2016-05-25T07:48:02.097Z,19.4
2016-05-25T07:49:01.615Z,19.4
2016-05-25T07:50:01.650Z,19.39
2016-05-25T07:51:01.668Z,19.31
2016-05-25T07:52:01.546Z,19.39
2016-05-25T07:53:01.735Z,19.44
2016-05-25T07:54:01.442Z,19.44
2016-05-25T07:55:01.632Z,19.44
2016-05-25T07:56:01.823Z,19.47
2016-05-25T07:57:01.840Z,19.4
2016-05-25T07:58:10.123Z,19.4
2016-05-25T07:59:01.721Z,19.43
2016-05-25T08:00:01.895Z,19.41
2016-05-25T08:01:01.772Z,19.44
2016-05-25T08:02:01.806Z,19.43
2016-05-25T08:03:02.497Z,19.43
2016-05-25T08:04:02.015Z,19.44
2016-05-25T08:05:01.893Z,19.46
2016-05-25T08:06:02.052Z,19.41
2016-05-25T08:07:02.086Z,19.37
2016-05-25T08:08:01.839Z,19.46
2016-05-25T08:09:02.122Z,19.46
2016-05-25T08:10:02.000Z,19.43
2016-05-25T08:11:02.191Z,19.44
2016-05-25T08:12:02.209Z,19.46
2016-05-25T08:13:02.243Z,19.47
2016-05-25T08:14:02.276Z,19.31
2016-05-25T08:15:02.138Z,19.47
2016-05-25T08:16:02.313Z,19.43
2016-05-25T08:17:02.347Z,19.48
2016-05-25T08:18:03.710Z,19.41
2016-05-25T08:19:02.243Z,19.5
2016-05-25T08:20:02.418Z,19.47
2016-05-25T08:21:02.452Z,19.47
2016-05-25T08:22:02.313Z,19.5
2016-05-25T08:23:02.895Z,19.55
2016-05-25T08:24:02.523Z,19.55
2016-05-25T08:25:02.556Z,19.47
2016-05-25T08:26:02.418Z,19.48
2016-05-25T08:27:02.451Z,19.51
2016-05-25T08:28:02.501Z,19.54
2016-05-25T08:29:02.504Z,19.54
2016-05-25T08:30:02.679Z,19.5
2016-05-25T08:31:02.712Z,19.56
2016-05-25T08:32:02.997Z,19.65
2016-05-25T08:33:02.781Z,19.65
2016-05-25T08:34:02.784Z,19.63
2016-05-25T08:35:02.817Z,19.61
2016-05-25T08:36:02.867Z,19.59
2016-05-25T08:37:02.869Z,19.61
2016-05-25T08:38:03.045Z,19.62
2016-05-25T08:39:02.922Z,19.66
2016-05-25T08:40:02.784Z,19.66
2016-05-25T08:41:02.958Z,19.73
2016-05-25T08:42:02.992Z,19.68
2016-05-25T08:43:03.511Z,19.69
2016-05-25T08:44:03.060Z,19.68
2016-05-25T08:45:03.079Z,19.68
2016-05-25T08:46:02.941Z,19.8
2016-05-25T08:47:03.130Z,19.74
2016-05-25T08:48:03.180Z,19.76
2016-05-25T08:49:03.183Z,19.77
2016-05-25T08:50:03.045Z,19.83
2016-05-25T08:51:03.251Z,19.74
2016-05-25T08:52:03.254Z,19.76
2016-05-25T08:53:05.038Z,19.87
2016-05-25T08:54:03.306Z,19.87
2016-05-25T08:55:03.340Z,19.87
2016-05-25T08:56:03.359Z,19.86
2016-05-25T08:57:03.407Z,19.87
2016-05-25T08:58:03.426Z,19.87
2016-05-25T08:59:03.304Z,19.88
2016-05-25T09:00:03.479Z,19.87
2016-05-25T09:01:03.325Z,19.95
2016-05-25T09:02:04.312Z,19.94
2016-05-25T09:03:03.393Z,19.86
2016-05-25T09:04:03.567Z,19.92
2016-05-25T09:05:03.444Z,19.88
2016-05-25T09:06:03.479Z,19.87
2016-05-25T09:07:03.653Z,19.86
2016-05-25T09:08:03.687Z,19.87
2016-05-25T09:09:03.706Z,19.83
2016-05-25T09:10:03.567Z,19.86
2016-05-25T09:11:03.758Z,19.87
2016-05-25T09:12:03.620Z,19.87
2016-05-25T09:13:03.826Z,19.83
2016-05-25T09:14:03.672Z,19.83
2016-05-25T09:15:03.863Z,19.88
2016-05-25T09:16:03.881Z,19.83
2016-05-25T09:17:04.103Z,19.84
2016-05-25T09:18:04.885Z,19.86
2016-05-25T09:19:03.811Z,19.83
2016-05-25T09:20:03.844Z,19.83
2016-05-25T09:21:03.863Z,19.86
2016-05-25T09:22:04.038Z,19.91
2016-05-25T09:23:04.072Z,19.83
2016-05-25T09:24:04.090Z,19.83
2016-05-25T09:25:04.124Z,19.83
2016-05-25T09:26:04.001Z,19.87
2016-05-25T09:27:04.176Z,19.96
2016-05-25T09:28:04.647Z,19.98
2016-05-25T09:29:04.228Z,19.92
2016-05-25T09:30:04.246Z,19.95
2016-05-25T09:31:04.124Z,19.94
2016-05-25T09:32:04.002Z,19.99
2016-05-25T09:33:04.176Z,19.92
2016-05-25T09:34:04.195Z,19.92
2016-05-25T09:35:04.214Z,20.03
2016-05-25T09:36:04.403Z,20.05
2016-05-25T09:37:04.437Z,20.05
2016-05-25T09:38:04.471Z,20.02
2016-05-25T09:39:04.475Z,20.1
2016-05-25T09:40:04.508Z,20.08
2016-05-25T09:41:04.541Z,20.14
2016-05-25T09:42:04.561Z,20.14
2016-05-25T09:43:07.376Z,20.13
2016-05-25T09:44:04.613Z,20.14
2016-05-25T09:45:04.630Z,20.18
2016-05-25T09:46:04.696Z,20.18
2016-05-25T09:47:05.011Z,20.24
2016-05-25T09:48:07.217Z,20.23
2016-05-25T09:49:04.751Z,20.32
2016-05-25T09:50:04.769Z,20.32
2016-05-25T09:51:04.819Z,20.33
2016-05-25T09:52:04.821Z,20.33
2016-05-25T09:53:06.949Z,20.36
2016-05-25T09:54:04.874Z,20.33
2016-05-25T09:55:04.907Z,20.36
2016-05-25T09:56:04.941Z,20.39
2016-05-25T09:57:04.959Z,20.38
2016-05-25T09:58:04.979Z,20.39
2016-05-25T09:59:05.012Z,20.5
2016-05-25T10:00:05.030Z,20.39
2016-05-25T10:01:05.079Z,20.5
2016-05-25T10:02:04.942Z,20.42
2016-05-25T10:03:05.117Z,20.5
2016-05-25T10:04:05.150Z,20.51
2016-05-25T10:05:05.169Z,20.54
2016-05-25T10:06:05.187Z,20.5
2016-05-25T10:07:05.064Z,20.55
2016-05-25T10:08:05.270Z,20.5
2016-05-25T10:09:05.273Z,20.54
2016-05-25T10:10:05.323Z,20.59
2016-05-25T10:11:05.325Z,20.59
2016-05-25T10:12:05.359Z,20.62
2016-05-25T10:13:05.394Z,20.66
2016-05-25T10:14:05.396Z,20.66
2016-05-25T10:15:05.430Z,20.66
2016-05-25T10:16:05.464Z,20.66
2016-05-25T10:17:05.483Z,20.79
2016-05-25T10:18:05.533Z,20.7
2016-05-25T10:19:05.535Z,20.74
2016-05-25T10:20:07.849Z,20.85
2016-05-25T10:21:05.430Z,20.87
2016-05-25T10:22:05.605Z,20.91
2016-05-25T10:23:05.639Z,20.77
2016-05-25T10:24:05.657Z,20.91
2016-05-25T10:25:05.692Z,20.97
2016-05-25T10:26:06.210Z,20.95
2016-05-25T10:27:05.587Z,21.09
2016-05-25T10:28:05.778Z,21.09
2016-05-25T10:29:05.812Z,21.13
2016-05-25T10:30:05.829Z,21.16
2016-05-25T10:31:08.614Z,21.28
2016-05-25T10:32:06.460Z,21.27
2016-05-25T10:33:05.901Z,21.27
2016-05-25T10:34:05.950Z,21.31
2016-05-25T10:35:05.953Z,21.38
2016-05-25T10:36:06.237Z,21.37
2016-05-25T10:37:06.005Z,21.44
2016-05-25T10:38:05.914Z,21.58
2016-05-25T10:39:06.073Z,21.59
2016-05-25T10:40:06.091Z,21.56
2016-05-25T10:41:06.422Z,21.71
2016-05-25T10:42:05.987Z,21.79
2016-05-25T10:43:06.178Z,21.77
2016-05-25T10:44:06.195Z,21.79
2016-05-25T10:45:06.229Z,21.83
2016-05-25T10:46:06.247Z,21.98
2016-05-25T10:47:06.141Z,21.91
2016-05-25T10:48:06.160Z,22.09
2016-05-25T10:49:06.178Z,22
2016-05-25T10:50:06.368Z,22.06
2016-05-25T10:51:06.402Z,22.09
2016-05-25T10:52:06.264Z,22.18
2016-05-25T10:53:06.439Z,22.14
2016-05-25T10:54:06.332Z,22.21
2016-05-25T10:55:06.350Z,22.21
2016-05-25T10:56:06.525Z,22.27
2016-05-25T10:57:06.559Z,22.28
2016-05-25T10:58:06.577Z,22.39
2016-05-25T10:59:06.454Z,22.36
2016-05-25T11:00:06.629Z,22.31
2016-05-25T11:01:06.507Z,22.37
2016-05-25T11:02:07.650Z,22.42
2016-05-25T11:03:07.419Z,22.4
2016-05-25T11:04:06.749Z,22.55
2016-05-25T11:05:06.768Z,22.45
2016-05-25T11:06:06.802Z,22.49
2016-05-25T11:07:06.836Z,22.54
2016-05-25T11:08:06.698Z,22.52
2016-05-25T11:09:06.872Z,22.49
2016-05-25T11:10:06.906Z,22.55
2016-05-25T11:11:06.768Z,22.49
2016-05-25T11:12:06.959Z,22.49
2016-05-25T11:13:06.992Z,22.61
2016-05-25T11:14:07.010Z,22.57
2016-05-25T11:15:07.028Z,22.61
2016-05-25T11:16:07.063Z,22.52
2016-05-25T11:17:07.706Z,22.61
2016-05-25T11:18:07.084Z,22.64
2016-05-25T11:19:07.150Z,22.64
2016-05-25T11:20:07.027Z,22.61
2016-05-25T11:21:07.201Z,22.58
2016-05-25T11:22:07.236Z,22.62
2016-05-25T11:23:07.254Z,22.55
2016-05-25T11:24:07.288Z,22.64
2016-05-25T11:25:07.305Z,22.61
2016-05-25T11:26:07.341Z,22.6
2016-05-25T11:27:07.374Z,22.62
2016-05-25T11:28:07.407Z,22.64
2016-05-25T11:29:07.270Z,22.6
2016-05-25T11:30:07.444Z,22.61
2016-05-25T11:31:07.478Z,22.58
2016-05-25T11:32:10.403Z,22.61
2016-05-25T11:33:07.390Z,22.62
2016-05-25T11:34:07.565Z,22.64
2016-05-25T11:35:07.583Z,22.65
2016-05-25T11:36:07.601Z,22.54
2016-05-25T11:37:07.634Z,22.6
2016-05-25T11:38:07.670Z,22.65
2016-05-25T11:39:07.390Z,22.62
2016-05-25T11:40:07.721Z,22.61
2016-05-25T11:41:07.740Z,22.67
2016-05-25T11:42:07.789Z,22.61
2016-05-25T11:43:07.792Z,22.61
2016-05-25T11:44:07.825Z,22.62
2016-05-25T11:45:07.844Z,22.6
2016-05-25T11:46:07.878Z,22.62
2016-05-25T11:47:08.240Z,22.62
2016-05-25T11:48:08.884Z,22.64
2016-05-25T11:49:07.964Z,22.62
2016-05-25T11:50:07.983Z,22.64
2016-05-25T11:51:08.016Z,22.65
2016-05-25T11:52:08.035Z,22.57
2016-05-25T11:53:08.085Z,22.67
2016-05-25T11:54:08.118Z,22.64
2016-05-25T11:55:08.121Z,22.57
2016-05-25T11:56:08.030Z,22.61
2016-05-25T11:57:08.188Z,22.6
2016-05-25T11:58:08.051Z,22.61
2016-05-25T11:59:08.257Z,22.65
2016-05-25T12:00:08.291Z,22.54
2016-05-25T12:01:08.137Z,22.58
2016-05-25T12:02:08.327Z,22.62
2016-05-25T12:03:08.268Z,22.52
2016-05-25T12:04:08.224Z,22.62
2016-05-25T12:05:08.257Z,22.49
2016-05-25T12:06:08.431Z,22.54
2016-05-25T12:07:08.450Z,22.54
2016-05-25T12:08:08.484Z,22.46
2016-05-25T12:09:08.346Z,22.4
2016-05-25T12:10:08.396Z,22.39
2016-05-25T12:11:08.586Z,22.45
2016-05-25T12:12:08.619Z,22.4
2016-05-25T12:13:08.623Z,22.42
2016-05-25T12:14:08.531Z,22.31
2016-05-25T12:15:08.690Z,22.3
2016-05-25T12:16:08.692Z,22.22
2016-05-25T12:17:11.336Z,22.31
2016-05-25T12:18:08.605Z,22.31
2016-05-25T12:19:08.780Z,22.24
2016-05-25T12:20:08.798Z,22.22
2016-05-25T12:21:08.831Z,22.14
2016-05-25T12:22:13.178Z,22.14
2016-05-25T12:23:08.759Z,22.12
2016-05-25T12:24:08.918Z,22.02
2016-05-25T12:25:08.936Z,22.07
2016-05-25T12:26:08.969Z,21.99
2016-05-25T12:27:10.519Z,21.98
2016-05-25T12:28:08.866Z,21.99
2016-05-25T12:29:09.057Z,21.91
2016-05-25T12:30:09.074Z,21.98
2016-05-25T12:31:09.108Z,21.79
2016-05-25T12:32:09.126Z,21.83
2016-05-25T12:33:09.176Z,21.75
2016-05-25T12:34:09.195Z,21.83
2016-05-25T12:35:09.213Z,21.82
2016-05-25T12:36:09.246Z,21.84
2016-05-25T12:37:10.046Z,21.71
2016-05-25T12:38:09.299Z,21.77
2016-05-25T12:39:09.318Z,21.71
2016-05-25T12:40:09.351Z,21.62
2016-05-25T12:41:09.229Z,21.53
2016-05-25T12:42:09.403Z,21.67
2016-05-25T12:43:09.453Z,21.56
2016-05-25T12:44:09.456Z,21.64
2016-05-25T12:45:09.490Z,21.46
2016-05-25T12:46:09.352Z,21.47
2016-05-25T12:47:12.511Z,21.49
2016-05-25T12:48:09.436Z,21.42
2016-05-25T12:49:09.454Z,21.4
2016-05-25T12:50:09.473Z,21.31
2016-05-25T12:51:09.505Z,21.35
2016-05-25T12:52:10.664Z,21.43
2016-05-25T12:53:09.699Z,21.35
2016-05-25T12:54:09.717Z,21.34
2016-05-25T12:55:09.767Z,21.25
2016-05-25T12:56:09.644Z,21.24